sensor_id;sensor_type;location;lat;lon;timestamp;P1;durP1;ratioP1;P2;durP2;ratioP2
19280;SDS011;9774;52.034;5.342;2023-07-31T00:00:30;1.13;;;0.70;;
19280;SDS011;9774;52.034;5.342;2023-07-31T00:02:57;1.48;;;1.10;;
19280;SDS011;9774;52.034;5.342;2023-07-31T00:05:24;0.93;;;0.73;;
19280;SDS011;9774;52.034;5.342;2023-07-31T00:07:52;1.15;;;0.80;;
19280;SDS011;9774;52.034;5.342;2023-07-31T00:10:21;1.73;;;1.13;;
19280;SDS011;9774;52.034;5.342;2023-07-31T00:12:48;1.73;;;1.08;;
19280;SDS011;9774;52.034;5.342;2023-07-31T00:15:15;1.23;;;0.75;;
19280;SDS011;9774;52.034;5.342;2023-07-31T00:17:43;2.38;;;1.40;;
19280;SDS011;9774;52.034;5.342;2023-07-31T00:20:10;2.15;;;1.63;;
19280;SDS011;9774;52.034;5.342;2023-07-31T00:22:37;3.65;;;1.40;;
19280;SDS011;9774;52.034;5.342;2023-07-31T00:25:05;2.50;;;1.45;;
19280;SDS011;9774;52.034;5.342;2023-07-31T00:27:34;5.85;;;1.85;;
19280;SDS011;9774;52.034;5.342;2023-07-31T00:30:01;5.25;;;2.30;;
19280;SDS011;9774;52.034;5.342;2023-07-31T00:32:29;4.18;;;2.30;;
19280;SDS011;9774;52.034;5.342;2023-07-31T00:34:56;3.67;;;2.38;;
19280;SDS011;9774;52.034;5.342;2023-07-31T00:37:23;5.35;;;2.45;;
19280;SDS011;9774;52.034;5.342;2023-07-31T00:39:51;8.05;;;3.00;;
19280;SDS011;9774;52.034;5.342;2023-07-31T00:42:18;7.70;;;3.53;;
19280;SDS011;9774;52.034;5.342;2023-07-31T00:44:46;10.15;;;3.30;;
19280;SDS011;9774;52.034;5.342;2023-07-31T00:47:14;9.45;;;3.38;;
19280;SDS011;9774;52.034;5.342;2023-07-31T00:49:41;11.63;;;4.03;;
19280;SDS011;9774;52.034;5.342;2023-07-31T00:52:09;9.70;;;3.55;;
19280;SDS011;9774;52.034;5.342;2023-07-31T00:54:37;8.13;;;3.45;;
19280;SDS011;9774;52.034;5.342;2023-07-31T00:57:04;7.28;;;2.90;;
19280;SDS011;9774;52.034;5.342;2023-07-31T00:59:33;7.20;;;3.45;;
19280;SDS011;9774;52.034;5.342;2023-07-31T01:02:01;10.38;;;4.15;;
19280;SDS011;9774;52.034;5.342;2023-07-31T01:04:30;6.85;;;3.13;;
19280;SDS011;9774;52.034;5.342;2023-07-31T01:07:00;11.18;;;3.88;;
19280;SDS011;9774;52.034;5.342;2023-07-31T01:09:32;8.18;;;3.63;;
19280;SDS011;9774;52.034;5.342;2023-07-31T01:12:06;9.75;;;3.83;;
19280;SDS011;9774;52.034;5.342;2023-07-31T01:14:35;8.20;;;4.38;;
19280;SDS011;9774;52.034;5.342;2023-07-31T01:17:04;9.38;;;3.58;;
19280;SDS011;9774;52.034;5.342;2023-07-31T01:19:31;10.98;;;3.60;;
19280;SDS011;9774;52.034;5.342;2023-07-31T01:22:04;8.52;;;3.58;;
19280;SDS011;9774;52.034;5.342;2023-07-31T01:24:52;8.43;;;3.45;;
19280;SDS011;9774;52.034;5.342;2023-07-31T01:27:26;13.85;;;3.80;;
19280;SDS011;9774;52.034;5.342;2023-07-31T01:30:02;6.57;;;3.13;;
19280;SDS011;9774;52.034;5.342;2023-07-31T01:32:36;9.52;;;3.90;;
19280;SDS011;9774;52.034;5.342;2023-07-31T01:35:05;14.45;;;3.70;;
19280;SDS011;9774;52.034;5.342;2023-07-31T01:37:33;7.95;;;3.15;;
19280;SDS011;9774;52.034;5.342;2023-07-31T01:40:00;7.53;;;3.60;;
19280;SDS011;9774;52.034;5.342;2023-07-31T01:42:29;12.48;;;4.53;;
19280;SDS011;9774;52.034;5.342;2023-07-31T01:44:57;10.98;;;3.25;;
19280;SDS011;9774;52.034;5.342;2023-07-31T01:47:24;7.68;;;3.25;;
19280;SDS011;9774;52.034;5.342;2023-07-31T01:49:51;11.35;;;4.13;;
19280;SDS011;9774;52.034;5.342;2023-07-31T01:52:18;9.82;;;3.63;;
19280;SDS011;9774;52.034;5.342;2023-07-31T01:54:46;10.38;;;3.38;;
19280;SDS011;9774;52.034;5.342;2023-07-31T01:57:13;5.22;;;2.15;;
19280;SDS011;9774;52.034;5.342;2023-07-31T01:59:42;6.20;;;3.35;;
19280;SDS011;9774;52.034;5.342;2023-07-31T02:02:09;6.07;;;2.53;;
19280;SDS011;9774;52.034;5.342;2023-07-31T02:04:36;6.20;;;2.60;;
19280;SDS011;9774;52.034;5.342;2023-07-31T02:07:04;7.85;;;2.33;;
19280;SDS011;9774;52.034;5.342;2023-07-31T02:09:32;5.03;;;2.17;;
19280;SDS011;9774;52.034;5.342;2023-07-31T02:11:59;3.63;;;1.67;;
19280;SDS011;9774;52.034;5.342;2023-07-31T02:14:26;5.07;;;2.20;;
19280;SDS011;9774;52.034;5.342;2023-07-31T02:16:55;5.45;;;1.77;;
19280;SDS011;9774;52.034;5.342;2023-07-31T02:19:22;3.00;;;1.58;;
19280;SDS011;9774;52.034;5.342;2023-07-31T02:21:49;6.75;;;2.35;;
19280;SDS011;9774;52.034;5.342;2023-07-31T02:24:17;4.80;;;2.20;;
19280;SDS011;9774;52.034;5.342;2023-07-31T02:26:44;5.05;;;2.28;;
19280;SDS011;9774;52.034;5.342;2023-07-31T02:29:11;5.90;;;2.20;;
19280;SDS011;9774;52.034;5.342;2023-07-31T02:31:38;4.88;;;2.58;;
19280;SDS011;9774;52.034;5.342;2023-07-31T02:34:07;6.47;;;2.13;;
19280;SDS011;9774;52.034;5.342;2023-07-31T02:36:34;4.20;;;2.45;;
19280;SDS011;9774;52.034;5.342;2023-07-31T02:39:01;4.00;;;2.13;;
19280;SDS011;9774;52.034;5.342;2023-07-31T02:41:29;3.83;;;1.80;;
19280;SDS011;9774;52.034;5.342;2023-07-31T02:43:56;6.90;;;3.15;;
19280;SDS011;9774;52.034;5.342;2023-07-31T02:46:23;9.35;;;3.83;;
19280;SDS011;9774;52.034;5.342;2023-07-31T02:48:51;9.70;;;3.28;;
19280;SDS011;9774;52.034;5.342;2023-07-31T02:51:19;8.52;;;2.60;;
19280;SDS011;9774;52.034;5.342;2023-07-31T02:53:47;7.75;;;3.30;;
19280;SDS011;9774;52.034;5.342;2023-07-31T02:56:14;6.18;;;2.92;;
19280;SDS011;9774;52.034;5.342;2023-07-31T02:58:42;10.25;;;3.35;;
19280;SDS011;9774;52.034;5.342;2023-07-31T03:01:09;8.20;;;3.60;;
19280;SDS011;9774;52.034;5.342;2023-07-31T03:03:36;6.90;;;3.80;;
19280;SDS011;9774;52.034;5.342;2023-07-31T03:06:03;11.65;;;3.60;;
19280;SDS011;9774;52.034;5.342;2023-07-31T03:08:32;10.27;;;4.28;;
19280;SDS011;9774;52.034;5.342;2023-07-31T03:10:59;11.80;;;4.75;;
19280;SDS011;9774;52.034;5.342;2023-07-31T03:13:26;10.82;;;3.58;;
19280;SDS011;9774;52.034;5.342;2023-07-31T03:15:54;7.75;;;3.50;;
19280;SDS011;9774;52.034;5.342;2023-07-31T03:18:21;12.43;;;4.57;;
19280;SDS011;9774;52.034;5.342;2023-07-31T03:20:48;11.63;;;4.20;;
19280;SDS011;9774;52.034;5.342;2023-07-31T03:23:15;9.75;;;3.65;;
19280;SDS011;9774;52.034;5.342;2023-07-31T03:25:56;7.82;;;3.60;;
19280;SDS011;9774;52.034;5.342;2023-07-31T03:28:23;6.78;;;3.15;;
19280;SDS011;9774;52.034;5.342;2023-07-31T03:30:51;10.05;;;4.22;;
19280;SDS011;9774;52.034;5.342;2023-07-31T03:33:18;7.38;;;3.42;;
19280;SDS011;9774;52.034;5.342;2023-07-31T03:35:46;7.50;;;3.42;;
19280;SDS011;9774;52.034;5.342;2023-07-31T03:38:13;8.18;;;4.30;;
19280;SDS011;9774;52.034;5.342;2023-07-31T03:40:41;7.35;;;3.35;;
19280;SDS011;9774;52.034;5.342;2023-07-31T03:43:09;9.90;;;3.30;;
19280;SDS011;9774;52.034;5.342;2023-07-31T03:45:36;8.85;;;3.72;;
19280;SDS011;9774;52.034;5.342;2023-07-31T03:48:04;9.10;;;3.95;;
19280;SDS011;9774;52.034;5.342;2023-07-31T03:50:32;7.18;;;3.65;;
19280;SDS011;9774;52.034;5.342;2023-07-31T03:53:00;6.75;;;3.60;;
19280;SDS011;9774;52.034;5.342;2023-07-31T03:55:27;7.13;;;3.40;;
19280;SDS011;9774;52.034;5.342;2023-07-31T03:57:54;6.63;;;3.25;;
19280;SDS011;9774;52.034;5.342;2023-07-31T04:00:23;10.48;;;3.78;;
19280;SDS011;9774;52.034;5.342;2023-07-31T04:02:50;7.63;;;4.10;;
19280;SDS011;9774;52.034;5.342;2023-07-31T04:05:17;7.22;;;3.80;;
19280;SDS011;9774;52.034;5.342;2023-07-31T04:07:45;9.73;;;3.40;;
19280;SDS011;9774;52.034;5.342;2023-07-31T04:10:12;7.43;;;3.78;;
19280;SDS011;9774;52.034;5.342;2023-07-31T04:12:40;11.23;;;4.25;;
19280;SDS011;9774;52.034;5.342;2023-07-31T04:15:07;8.05;;;3.50;;
19280;SDS011;9774;52.034;5.342;2023-07-31T04:17:36;7.78;;;3.50;;
19280;SDS011;9774;52.034;5.342;2023-07-31T04:20:04;6.45;;;3.15;;
19280;SDS011;9774;52.034;5.342;2023-07-31T04:22:32;7.68;;;3.60;;
19280;SDS011;9774;52.034;5.342;2023-07-31T04:24:59;6.72;;;3.17;;
19280;SDS011;9774;52.034;5.342;2023-07-31T04:27:26;5.85;;;3.28;;
19280;SDS011;9774;52.034;5.342;2023-07-31T04:29:53;6.55;;;3.03;;
19280;SDS011;9774;52.034;5.342;2023-07-31T04:32:21;10.05;;;4.80;;
19280;SDS011;9774;52.034;5.342;2023-07-31T04:34:49;9.13;;;3.50;;
19280;SDS011;9774;52.034;5.342;2023-07-31T04:37:16;6.72;;;3.20;;
19280;SDS011;9774;52.034;5.342;2023-07-31T04:39:44;8.80;;;3.30;;
19280;SDS011;9774;52.034;5.342;2023-07-31T04:42:11;9.68;;;3.63;;
19280;SDS011;9774;52.034;5.342;2023-07-31T04:44:38;6.97;;;3.38;;
19280;SDS011;9774;52.034;5.342;2023-07-31T04:47:05;5.88;;;2.95;;
19280;SDS011;9774;52.034;5.342;2023-07-31T04:49:33;7.40;;;3.55;;
19280;SDS011;9774;52.034;5.342;2023-07-31T04:52:01;8.13;;;2.97;;
19280;SDS011;9774;52.034;5.342;2023-07-31T04:54:29;8.38;;;3.50;;
19280;SDS011;9774;52.034;5.342;2023-07-31T04:56:56;6.00;;;2.72;;
19280;SDS011;9774;52.034;5.342;2023-07-31T04:59:24;9.77;;;3.42;;
19280;SDS011;9774;52.034;5.342;2023-07-31T05:01:51;8.38;;;3.47;;
19280;SDS011;9774;52.034;5.342;2023-07-31T05:04:18;8.05;;;3.03;;
19280;SDS011;9774;52.034;5.342;2023-07-31T05:06:45;7.60;;;2.67;;
19280;SDS011;9774;52.034;5.342;2023-07-31T05:09:14;5.55;;;2.90;;
19280;SDS011;9774;52.034;5.342;2023-07-31T05:11:41;5.65;;;2.60;;
19280;SDS011;9774;52.034;5.342;2023-07-31T05:14:08;7.78;;;2.67;;
19280;SDS011;9774;52.034;5.342;2023-07-31T05:16:36;6.93;;;3.42;;
19280;SDS011;9774;52.034;5.342;2023-07-31T05:19:03;8.95;;;2.60;;
19280;SDS011;9774;52.034;5.342;2023-07-31T05:21:30;4.85;;;2.70;;
19280;SDS011;9774;52.034;5.342;2023-07-31T05:23:57;8.18;;;2.95;;
19280;SDS011;9774;52.034;5.342;2023-07-31T05:26:26;5.20;;;2.47;;
19280;SDS011;9774;52.034;5.342;2023-07-31T05:28:53;5.10;;;2.50;;
19280;SDS011;9774;52.034;5.342;2023-07-31T05:31:20;5.75;;;2.55;;
19280;SDS011;9774;52.034;5.342;2023-07-31T05:33:49;4.18;;;2.03;;
19280;SDS011;9774;52.034;5.342;2023-07-31T05:36:16;4.57;;;2.00;;
19280;SDS011;9774;52.034;5.342;2023-07-31T05:38:44;5.30;;;2.22;;
19280;SDS011;9774;52.034;5.342;2023-07-31T05:41:11;3.80;;;2.15;;
19280;SDS011;9774;52.034;5.342;2023-07-31T05:43:40;5.63;;;2.38;;
19280;SDS011;9774;52.034;5.342;2023-07-31T05:46:08;5.80;;;3.05;;
19280;SDS011;9774;52.034;5.342;2023-07-31T05:48:36;6.55;;;2.45;;
19280;SDS011;9774;52.034;5.342;2023-07-31T05:51:04;4.45;;;2.70;;
19280;SDS011;9774;52.034;5.342;2023-07-31T05:53:32;4.57;;;2.63;;
19280;SDS011;9774;52.034;5.342;2023-07-31T05:56:01;3.67;;;2.33;;
19280;SDS011;9774;52.034;5.342;2023-07-31T05:58:28;4.65;;;2.28;;
19280;SDS011;9774;52.034;5.342;2023-07-31T06:00:57;5.43;;;2.70;;
19280;SDS011;9774;52.034;5.342;2023-07-31T06:03:24;6.22;;;2.75;;
19280;SDS011;9774;52.034;5.342;2023-07-31T06:05:51;5.88;;;2.33;;
19280;SDS011;9774;52.034;5.342;2023-07-31T06:08:18;5.22;;;2.72;;
19280;SDS011;9774;52.034;5.342;2023-07-31T06:10:46;6.18;;;2.50;;
19280;SDS011;9774;52.034;5.342;2023-07-31T06:13:13;6.55;;;3.13;;
19280;SDS011;9774;52.034;5.342;2023-07-31T06:15:40;4.80;;;2.55;;
19280;SDS011;9774;52.034;5.342;2023-07-31T06:18:09;4.30;;;2.20;;
19280;SDS011;9774;52.034;5.342;2023-07-31T06:20:36;2.72;;;1.73;;
19280;SDS011;9774;52.034;5.342;2023-07-31T06:23:05;4.68;;;2.53;;
19280;SDS011;9774;52.034;5.342;2023-07-31T06:25:32;3.55;;;2.38;;
19280;SDS011;9774;52.034;5.342;2023-07-31T06:28:00;3.70;;;1.88;;
19280;SDS011;9774;52.034;5.342;2023-07-31T06:30:27;2.78;;;1.50;;
19280;SDS011;9774;52.034;5.342;2023-07-31T06:32:54;4.43;;;2.25;;
19280;SDS011;9774;52.034;5.342;2023-07-31T06:35:23;4.32;;;2.30;;
19280;SDS011;9774;52.034;5.342;2023-07-31T06:37:50;3.35;;;1.38;;
19280;SDS011;9774;52.034;5.342;2023-07-31T06:40:17;3.10;;;1.95;;
19280;SDS011;9774;52.034;5.342;2023-07-31T06:42:45;5.35;;;1.90;;
19280;SDS011;9774;52.034;5.342;2023-07-31T06:45:12;1.67;;;1.20;;
19280;SDS011;9774;52.034;5.342;2023-07-31T06:47:39;3.53;;;2.03;;
19280;SDS011;9774;52.034;5.342;2023-07-31T06:50:07;3.53;;;1.65;;
19280;SDS011;9774;52.034;5.342;2023-07-31T06:52:36;2.88;;;1.70;;
19280;SDS011;9774;52.034;5.342;2023-07-31T06:55:04;4.57;;;2.35;;
19280;SDS011;9774;52.034;5.342;2023-07-31T06:57:43;2.88;;;1.45;;
19280;SDS011;9774;52.034;5.342;2023-07-31T07:00:11;2.88;;;1.52;;
19280;SDS011;9774;52.034;5.342;2023-07-31T07:02:38;3.65;;;1.58;;
19280;SDS011;9774;52.034;5.342;2023-07-31T07:05:06;1.90;;;1.50;;
19280;SDS011;9774;52.034;5.342;2023-07-31T07:07:35;3.15;;;1.65;;
19280;SDS011;9774;52.034;5.342;2023-07-31T07:10:03;2.92;;;2.08;;
19280;SDS011;9774;52.034;5.342;2023-07-31T07:12:31;1.80;;;1.60;;
19280;SDS011;9774;52.034;5.342;2023-07-31T07:14:58;3.05;;;2.08;;
19280;SDS011;9774;52.034;5.342;2023-07-31T07:17:27;2.00;;;1.50;;
19280;SDS011;9774;52.034;5.342;2023-07-31T07:19:56;2.97;;;2.15;;
19280;SDS011;9774;52.034;5.342;2023-07-31T07:22:23;2.63;;;1.70;;
19280;SDS011;9774;52.034;5.342;2023-07-31T07:24:53;3.67;;;2.00;;
19280;SDS011;9774;52.034;5.342;2023-07-31T07:27:21;2.70;;;1.95;;
19280;SDS011;9774;52.034;5.342;2023-07-31T07:29:49;2.72;;;1.65;;
19280;SDS011;9774;52.034;5.342;2023-07-31T07:32:18;2.40;;;1.90;;
19280;SDS011;9774;52.034;5.342;2023-07-31T07:34:45;3.45;;;2.40;;
19280;SDS011;9774;52.034;5.342;2023-07-31T07:37:13;2.80;;;1.73;;
19280;SDS011;9774;52.034;5.342;2023-07-31T07:39:40;3.50;;;2.03;;
19280;SDS011;9774;52.034;5.342;2023-07-31T07:42:09;2.80;;;2.05;;
19280;SDS011;9774;52.034;5.342;2023-07-31T07:44:36;1.77;;;1.63;;
19280;SDS011;9774;52.034;5.342;2023-07-31T07:47:04;2.45;;;1.73;;
19280;SDS011;9774;52.034;5.342;2023-07-31T07:49:32;3.80;;;1.80;;
19280;SDS011;9774;52.034;5.342;2023-07-31T07:52:00;2.40;;;1.25;;
19280;SDS011;9774;52.034;5.342;2023-07-31T07:54:27;1.77;;;1.27;;
19280;SDS011;9774;52.034;5.342;2023-07-31T07:56:55;1.50;;;1.35;;
19280;SDS011;9774;52.034;5.342;2023-07-31T07:59:23;1.83;;;1.15;;
19280;SDS011;9774;52.034;5.342;2023-07-31T08:01:51;1.58;;;1.30;;
19280;SDS011;9774;52.034;5.342;2023-07-31T08:04:18;1.98;;;1.50;;
19280;SDS011;9774;52.034;5.342;2023-07-31T08:06:45;2.92;;;1.88;;
19280;SDS011;9774;52.034;5.342;2023-07-31T08:09:12;2.92;;;1.52;;
19280;SDS011;9774;52.034;5.342;2023-07-31T08:11:40;1.25;;;1.15;;
19280;SDS011;9774;52.034;5.342;2023-07-31T08:14:07;1.77;;;1.40;;
19280;SDS011;9774;52.034;5.342;2023-07-31T08:16:36;1.95;;;1.20;;
19280;SDS011;9774;52.034;5.342;2023-07-31T08:19:03;1.40;;;1.30;;
19280;SDS011;9774;52.034;5.342;2023-07-31T08:21:31;1.83;;;1.58;;
19280;SDS011;9774;52.034;5.342;2023-07-31T08:23:58;2.28;;;1.73;;
19280;SDS011;9774;52.034;5.342;2023-07-31T08:26:25;1.70;;;1.20;;
19280;SDS011;9774;52.034;5.342;2023-07-31T08:28:53;2.05;;;1.25;;
19280;SDS011;9774;52.034;5.342;2023-07-31T08:31:20;1.33;;;1.15;;
19280;SDS011;9774;52.034;5.342;2023-07-31T08:33:48;1.83;;;1.20;;
19280;SDS011;9774;52.034;5.342;2023-07-31T08:36:16;1.05;;;0.95;;
19280;SDS011;9774;52.034;5.342;2023-07-31T08:38:45;1.80;;;1.10;;
19280;SDS011;9774;52.034;5.342;2023-07-31T08:41:12;1.27;;;1.17;;
19280;SDS011;9774;52.034;5.342;2023-07-31T08:43:41;1.25;;;0.80;;
19280;SDS011;9774;52.034;5.342;2023-07-31T08:46:10;1.10;;;1.00;;
19280;SDS011;9774;52.034;5.342;2023-07-31T08:48:39;1.58;;;1.35;;
19280;SDS011;9774;52.034;5.342;2023-07-31T08:51:09;1.80;;;1.20;;
19280;SDS011;9774;52.034;5.342;2023-07-31T08:53:36;3.95;;;1.65;;
19280;SDS011;9774;52.034;5.342;2023-07-31T08:56:04;1.58;;;1.30;;
19280;SDS011;9774;52.034;5.342;2023-07-31T08:58:32;1.75;;;1.65;;
19280;SDS011;9774;52.034;5.342;2023-07-31T09:01:01;1.77;;;1.30;;
19280;SDS011;9774;52.034;5.342;2023-07-31T09:03:30;1.42;;;1.30;;
19280;SDS011;9774;52.034;5.342;2023-07-31T09:06:00;1.60;;;1.50;;
19280;SDS011;9774;52.034;5.342;2023-07-31T09:08:32;1.70;;;1.35;;
19280;SDS011;9774;52.034;5.342;2023-07-31T09:11:00;1.67;;;1.20;;
19280;SDS011;9774;52.034;5.342;2023-07-31T09:13:29;1.58;;;1.48;;
19280;SDS011;9774;52.034;5.342;2023-07-31T09:15:57;1.83;;;1.20;;
19280;SDS011;9774;52.034;5.342;2023-07-31T09:18:24;1.40;;;1.30;;
19280;SDS011;9774;52.034;5.342;2023-07-31T09:21:02;1.45;;;1.35;;
19280;SDS011;9774;52.034;5.342;2023-07-31T09:26:28;2.42;;;1.55;;
19280;SDS011;9774;52.034;5.342;2023-07-31T09:28:56;1.73;;;1.23;;
19280;SDS011;9774;52.034;5.342;2023-07-31T09:31:31;3.05;;;1.90;;
19280;SDS011;9774;52.034;5.342;2023-07-31T09:33:59;2.70;;;1.67;;
19280;SDS011;9774;52.034;5.342;2023-07-31T09:36:28;3.53;;;1.40;;
19280;SDS011;9774;52.034;5.342;2023-07-31T09:38:59;3.22;;;1.50;;
19280;SDS011;9774;52.034;5.342;2023-07-31T09:41:29;1.48;;;1.38;;
19280;SDS011;9774;52.034;5.342;2023-07-31T09:43:56;2.00;;;1.58;;
19280;SDS011;9774;52.034;5.342;2023-07-31T09:46:23;3.85;;;1.48;;
19280;SDS011;9774;52.034;5.342;2023-07-31T09:49:02;1.67;;;1.30;;
19280;SDS011;9774;52.034;5.342;2023-07-31T09:51:34;1.52;;;1.33;;
19280;SDS011;9774;52.034;5.342;2023-07-31T09:54:05;2.20;;;1.70;;
19280;SDS011;9774;52.034;5.342;2023-07-31T09:56:37;2.33;;;1.55;;
19280;SDS011;9774;52.034;5.342;2023-07-31T09:59:07;1.52;;;1.08;;
19280;SDS011;9774;52.034;5.342;2023-07-31T10:01:37;2.13;;;1.13;;
19280;SDS011;9774;52.034;5.342;2023-07-31T10:04:05;1.55;;;1.45;;
19280;SDS011;9774;52.034;5.342;2023-07-31T10:06:35;1.85;;;1.67;;
19280;SDS011;9774;52.034;5.342;2023-07-31T10:09:06;3.67;;;2.10;;
19280;SDS011;9774;52.034;5.342;2023-07-31T10:11:37;6.88;;;2.38;;
19280;SDS011;9774;52.034;5.342;2023-07-31T10:14:09;4.75;;;1.92;;
19280;SDS011;9774;52.034;5.342;2023-07-31T10:16:37;2.60;;;2.10;;
19280;SDS011;9774;52.034;5.342;2023-07-31T10:19:05;5.10;;;2.30;;
19280;SDS011;9774;52.034;5.342;2023-07-31T10:21:34;3.13;;;2.03;;
19280;SDS011;9774;52.034;5.342;2023-07-31T10:24:03;2.75;;;1.95;;
19280;SDS011;9774;52.034;5.342;2023-07-31T10:26:32;4.47;;;2.22;;
19280;SDS011;9774;52.034;5.342;2023-07-31T10:29:02;3.20;;;2.50;;
19280;SDS011;9774;52.034;5.342;2023-07-31T10:31:29;3.47;;;2.33;;
19280;SDS011;9774;52.034;5.342;2023-07-31T10:33:58;3.08;;;2.03;;
19280;SDS011;9774;52.034;5.342;2023-07-31T10:36:28;4.70;;;2.22;;
19280;SDS011;9774;52.034;5.342;2023-07-31T10:38:55;3.00;;;2.22;;
19280;SDS011;9774;52.034;5.342;2023-07-31T10:41:29;3.80;;;2.45;;
19280;SDS011;9774;52.034;5.342;2023-07-31T10:43:57;4.47;;;2.17;;
19280;SDS011;9774;52.034;5.342;2023-07-31T10:46:25;2.83;;;2.20;;
19280;SDS011;9774;52.034;5.342;2023-07-31T10:48:57;2.85;;;2.30;;
19280;SDS011;9774;52.034;5.342;2023-07-31T10:51:32;3.28;;;2.13;;
19280;SDS011;9774;52.034;5.342;2023-07-31T10:54:10;2.10;;;1.85;;
19280;SDS011;9774;52.034;5.342;2023-07-31T10:56:40;4.28;;;1.80;;
19280;SDS011;9774;52.034;5.342;2023-07-31T10:59:12;2.10;;;1.90;;
19280;SDS011;9774;52.034;5.342;2023-07-31T11:01:51;4.40;;;1.50;;
19280;SDS011;9774;52.034;5.342;2023-07-31T11:04:23;1.70;;;1.60;;
19280;SDS011;9774;52.034;5.342;2023-07-31T11:06:55;1.88;;;1.30;;
19280;SDS011;9774;52.034;5.342;2023-07-31T11:09:24;1.50;;;1.27;;
19280;SDS011;9774;52.034;5.342;2023-07-31T11:11:55;1.83;;;1.40;;
19280;SDS011;9774;52.034;5.342;2023-07-31T11:14:22;3.75;;;1.60;;
19280;SDS011;9774;52.034;5.342;2023-07-31T11:16:50;1.90;;;1.10;;
19280;SDS011;9774;52.034;5.342;2023-07-31T11:19:21;1.73;;;1.63;;
19280;SDS011;9774;52.034;5.342;2023-07-31T11:21:49;1.27;;;1.17;;
19280;SDS011;9774;52.034;5.342;2023-07-31T11:24:16;3.05;;;1.80;;
19280;SDS011;9774;52.034;5.342;2023-07-31T11:26:47;2.92;;;1.95;;
19280;SDS011;9774;52.034;5.342;2023-07-31T11:29:17;2.28;;;1.73;;
19280;SDS011;9774;52.034;5.342;2023-07-31T11:31:46;2.80;;;1.65;;
19280;SDS011;9774;52.034;5.342;2023-07-31T11:34:14;1.92;;;1.65;;
19280;SDS011;9774;52.034;5.342;2023-07-31T11:36:47;2.90;;;1.88;;
19280;SDS011;9774;52.034;5.342;2023-07-31T11:39:19;1.98;;;1.60;;
19280;SDS011;9774;52.034;5.342;2023-07-31T11:41:47;3.72;;;2.10;;
19280;SDS011;9774;52.034;5.342;2023-07-31T11:44:14;2.10;;;1.90;;
19280;SDS011;9774;52.034;5.342;2023-07-31T11:46:43;3.00;;;1.98;;
19280;SDS011;9774;52.034;5.342;2023-07-31T11:49:10;2.35;;;1.95;;
19280;SDS011;9774;52.034;5.342;2023-07-31T11:51:37;1.80;;;1.48;;
19280;SDS011;9774;52.034;5.342;2023-07-31T11:54:05;2.80;;;2.03;;
19280;SDS011;9774;52.034;5.342;2023-07-31T11:56:32;1.75;;;1.63;;
19280;SDS011;9774;52.034;5.342;2023-07-31T11:59:00;2.20;;;1.83;;
19280;SDS011;9774;52.034;5.342;2023-07-31T12:01:30;2.05;;;1.70;;
19280;SDS011;9774;52.034;5.342;2023-07-31T12:03:59;1.40;;;1.17;;
19280;SDS011;9774;52.034;5.342;2023-07-31T12:06:32;2.33;;;1.50;;
19280;SDS011;9774;52.034;5.342;2023-07-31T12:09:01;2.00;;;1.38;;
19280;SDS011;9774;52.034;5.342;2023-07-31T12:11:29;1.20;;;1.05;;
19280;SDS011;9774;52.034;5.342;2023-07-31T12:13:57;2.30;;;1.40;;
19280;SDS011;9774;52.034;5.342;2023-07-31T12:16:25;1.10;;;1.00;;
19280;SDS011;9774;52.034;5.342;2023-07-31T12:18:54;2.25;;;1.25;;
19280;SDS011;9774;52.034;5.342;2023-07-31T12:21:22;1.35;;;1.13;;
19280;SDS011;9774;52.034;5.342;2023-07-31T12:23:53;1.40;;;0.98;;
19280;SDS011;9774;52.034;5.342;2023-07-31T12:26:21;1.30;;;1.20;;
19280;SDS011;9774;52.034;5.342;2023-07-31T12:28:50;1.77;;;1.50;;
19280;SDS011;9774;52.034;5.342;2023-07-31T12:31:21;1.33;;;1.23;;
19280;SDS011;9774;52.034;5.342;2023-07-31T12:33:49;1.60;;;1.50;;
19280;SDS011;9774;52.034;5.342;2023-07-31T12:36:17;1.63;;;1.23;;
19280;SDS011;9774;52.034;5.342;2023-07-31T12:38:48;2.53;;;1.50;;
19280;SDS011;9774;52.034;5.342;2023-07-31T12:41:15;1.40;;;1.30;;
19280;SDS011;9774;52.034;5.342;2023-07-31T12:43:44;1.83;;;1.73;;
19280;SDS011;9774;52.034;5.342;2023-07-31T12:46:11;1.42;;;1.33;;
19280;SDS011;9774;52.034;5.342;2023-07-31T12:48:39;2.03;;;1.67;;
19280;SDS011;9774;52.034;5.342;2023-07-31T12:51:07;2.03;;;1.75;;
19280;SDS011;9774;52.034;5.342;2023-07-31T12:53:34;1.98;;;1.75;;
19280;SDS011;9774;52.034;5.342;2023-07-31T12:56:03;1.80;;;1.58;;
19280;SDS011;9774;52.034;5.342;2023-07-31T12:58:30;2.00;;;1.90;;
19280;SDS011;9774;52.034;5.342;2023-07-31T13:00:58;1.65;;;1.55;;
19280;SDS011;9774;52.034;5.342;2023-07-31T13:03:26;2.80;;;1.98;;
19280;SDS011;9774;52.034;5.342;2023-07-31T13:05:53;4.28;;;1.63;;
19280;SDS011;9774;52.034;5.342;2023-07-31T13:08:21;3.58;;;1.42;;
19280;SDS011;9774;52.034;5.342;2023-07-31T13:10:48;2.97;;;1.60;;
19280;SDS011;9774;52.034;5.342;2023-07-31T13:13:16;1.60;;;1.50;;
19280;SDS011;9774;52.034;5.342;2023-07-31T13:15:44;1.80;;;1.50;;
19280;SDS011;9774;52.034;5.342;2023-07-31T13:18:11;2.67;;;1.63;;
19280;SDS011;9774;52.034;5.342;2023-07-31T13:20:38;2.38;;;1.60;;
19280;SDS011;9774;52.034;5.342;2023-07-31T13:23:05;1.73;;;1.13;;
19280;SDS011;9774;52.034;5.342;2023-07-31T13:25:33;1.63;;;1.20;;
19280;SDS011;9774;52.034;5.342;2023-07-31T13:28:00;2.55;;;1.23;;
19280;SDS011;9774;52.034;5.342;2023-07-31T13:30:29;2.13;;;1.55;;
19280;SDS011;9774;52.034;5.342;2023-07-31T13:32:56;2.75;;;1.50;;
19280;SDS011;9774;52.034;5.342;2023-07-31T13:35:23;1.73;;;1.20;;
19280;SDS011;9774;52.034;5.342;2023-07-31T13:37:50;1.95;;;1.52;;
19280;SDS011;9774;52.034;5.342;2023-07-31T13:40:18;1.73;;;1.50;;
19280;SDS011;9774;52.034;5.342;2023-07-31T13:42:45;2.08;;;1.80;;
19280;SDS011;9774;52.034;5.342;2023-07-31T13:45:13;2.60;;;2.40;;
19280;SDS011;9774;52.034;5.342;2023-07-31T13:47:42;4.40;;;2.67;;
19280;SDS011;9774;52.034;5.342;2023-07-31T13:50:09;2.83;;;2.47;;
19280;SDS011;9774;52.034;5.342;2023-07-31T13:52:36;2.53;;;2.33;;
19280;SDS011;9774;52.034;5.342;2023-07-31T13:55:04;3.42;;;3.13;;
19280;SDS011;9774;52.034;5.342;2023-07-31T13:57:32;4.75;;;3.28;;
19280;SDS011;9774;52.034;5.342;2023-07-31T13:59:59;4.07;;;3.55;;
19280;SDS011;9774;52.034;5.342;2023-07-31T14:02:27;3.70;;;3.40;;
19280;SDS011;9774;52.034;5.342;2023-07-31T14:04:55;3.92;;;3.55;;
19280;SDS011;9774;52.034;5.342;2023-07-31T14:07:23;3.55;;;3.25;;
19280;SDS011;9774;52.034;5.342;2023-07-31T14:09:50;4.75;;;3.60;;
19280;SDS011;9774;52.034;5.342;2023-07-31T14:12:17;6.05;;;4.45;;
19280;SDS011;9774;52.034;5.342;2023-07-31T14:14:44;4.60;;;4.05;;
19280;SDS011;9774;52.034;5.342;2023-07-31T14:17:12;4.47;;;4.05;;
19280;SDS011;9774;52.034;5.342;2023-07-31T14:19:39;3.90;;;3.25;;
19280;SDS011;9774;52.034;5.342;2023-07-31T14:22:07;3.38;;;3.08;;
19280;SDS011;9774;52.034;5.342;2023-07-31T14:24:35;3.50;;;3.20;;
19280;SDS011;9774;52.034;5.342;2023-07-31T14:27:02;3.83;;;3.47;;
19280;SDS011;9774;52.034;5.342;2023-07-31T14:29:30;3.47;;;3.17;;
19280;SDS011;9774;52.034;5.342;2023-07-31T14:31:57;4.03;;;3.15;;
19280;SDS011;9774;52.034;5.342;2023-07-31T14:34:24;4.10;;;3.58;;
19280;SDS011;9774;52.034;5.342;2023-07-31T14:36:52;4.10;;;3.38;;
19280;SDS011;9774;52.034;5.342;2023-07-31T14:39:20;3.08;;;2.67;;
19280;SDS011;9774;52.034;5.342;2023-07-31T14:41:47;3.45;;;2.70;;
19280;SDS011;9774;52.034;5.342;2023-07-31T14:44:15;3.08;;;2.42;;
19280;SDS011;9774;52.034;5.342;2023-07-31T14:46:42;3.25;;;2.60;;
19280;SDS011;9774;52.034;5.342;2023-07-31T14:49:09;2.95;;;2.28;;
19280;SDS011;9774;52.034;5.342;2023-07-31T14:51:37;3.05;;;2.40;;
19280;SDS011;9774;52.034;5.342;2023-07-31T14:54:04;2.22;;;1.88;;
19280;SDS011;9774;52.034;5.342;2023-07-31T14:56:33;3.33;;;2.20;;
19280;SDS011;9774;52.034;5.342;2023-07-31T14:59:00;2.35;;;2.15;;
19280;SDS011;9774;52.034;5.342;2023-07-31T15:01:27;2.33;;;2.13;;
19280;SDS011;9774;52.034;5.342;2023-07-31T15:03:55;4.93;;;2.58;;
19280;SDS011;9774;52.034;5.342;2023-07-31T15:06:22;3.92;;;2.58;;
19280;SDS011;9774;52.034;5.342;2023-07-31T15:08:49;2.67;;;2.20;;